オウル の空港の天気 - METARとTAF

オウル空港 ( EFOU / OUL ) - フィンランド Oulunsalo
飛行場実況気象(Metar)
観測時間08/11 10:20 EEST (08/11 07:20 UTC)
風向・風速不定 1m/s
視程10km以上
天気現象
なし
気温14℃
湿度72%
気圧1027hPa
METAREFOU 110720Z AUTO VRB02KT CAVOK 14/09 Q1027
過去の天気等 Google飛行場航空写真 Wunderground天気予報

過去48時間のMETAR

飛行場予報(TAF)
発表時間: 8/11 08:33 EEST (8/11 05:33 UTC)
予報対象時間: 11日9時 EEST ~ 12日9時 EEST
風向・風速北 4m/s
視程10km以上
なし
TAF EFOU 110533Z 1106/1206 36007KT CAVOK